sensor_id;sensor_type;location;lat;lon;timestamp;P1;durP1;ratioP1;P2;durP2;ratioP2
57307;SDS011;43152;50.968;18.214;2023-02-12T00:05:26;36.70;;;16.60;;
57307;SDS011;43152;50.968;18.214;2023-02-12T00:15:08;47.80;;;13.70;;
57307;SDS011;43152;50.968;18.214;2023-02-12T00:24:52;33.80;;;13.50;;
57307;SDS011;43152;50.968;18.214;2023-02-12T00:34:34;33.50;;;14.00;;
57307;SDS011;43152;50.968;18.214;2023-02-12T00:44:16;29.70;;;14.50;;
57307;SDS011;43152;50.968;18.214;2023-02-12T00:53:58;20.30;;;9.70;;
57307;SDS011;43152;50.968;18.214;2023-02-12T01:03:41;38.20;;;15.80;;
57307;SDS011;43152;50.968;18.214;2023-02-12T01:13:25;38.60;;;15.40;;
57307;SDS011;43152;50.968;18.214;2023-02-12T01:23:17;25.60;;;10.80;;
57307;SDS011;43152;50.968;18.214;2023-02-12T01:33:00;26.30;;;11.50;;
57307;SDS011;43152;50.968;18.214;2023-02-12T01:42:43;39.60;;;11.40;;
57307;SDS011;43152;50.968;18.214;2023-02-12T01:52:32;36.80;;;13.40;;
57307;SDS011;43152;50.968;18.214;2023-02-12T02:02:19;39.70;;;15.00;;
57307;SDS011;43152;50.968;18.214;2023-02-12T02:12:02;33.20;;;12.10;;
57307;SDS011;43152;50.968;18.214;2023-02-12T02:32:54;38.90;;;11.90;;
57307;SDS011;43152;50.968;18.214;2023-02-12T02:44:14;38.80;;;12.10;;
57307;SDS011;43152;50.968;18.214;2023-02-12T02:53:53;38.80;;;12.40;;
57307;SDS011;43152;50.968;18.214;2023-02-12T03:03:52;26.90;;;12.10;;
57307;SDS011;43152;50.968;18.214;2023-02-12T03:14:31;47.60;;;12.30;;
57307;SDS011;43152;50.968;18.214;2023-02-12T03:44:50;27.50;;;8.80;;
57307;SDS011;43152;50.968;18.214;2023-02-12T03:54:50;54.10;;;13.80;;
57307;SDS011;43152;50.968;18.214;2023-02-12T04:04:37;25.60;;;8.80;;
57307;SDS011;43152;50.968;18.214;2023-02-12T04:35:25;26.00;;;11.80;;
57307;SDS011;43152;50.968;18.214;2023-02-12T04:45:23;41.70;;;12.80;;
57307;SDS011;43152;50.968;18.214;2023-02-12T04:55:10;34.10;;;10.60;;
57307;SDS011;43152;50.968;18.214;2023-02-12T05:04:55;37.00;;;18.60;;
57307;SDS011;43152;50.968;18.214;2023-02-12T05:14:37;28.20;;;10.80;;
57307;SDS011;43152;50.968;18.214;2023-02-12T05:24:20;31.60;;;8.80;;
57307;SDS011;43152;50.968;18.214;2023-02-12T05:34:02;31.30;;;8.80;;
57307;SDS011;43152;50.968;18.214;2023-02-12T05:43:48;24.40;;;10.40;;
57307;SDS011;43152;50.968;18.214;2023-02-12T05:53:30;26.20;;;9.40;;
57307;SDS011;43152;50.968;18.214;2023-02-12T06:03:34;24.10;;;6.90;;
57307;SDS011;43152;50.968;18.214;2023-02-12T06:13:16;13.50;;;5.10;;
57307;SDS011;43152;50.968;18.214;2023-02-12T06:22:59;35.10;;;9.30;;
57307;SDS011;43152;50.968;18.214;2023-02-12T06:32:41;28.40;;;7.60;;
57307;SDS011;43152;50.968;18.214;2023-02-12T06:42:27;18.30;;;6.80;;
57307;SDS011;43152;50.968;18.214;2023-02-12T06:52:09;25.30;;;7.70;;
57307;SDS011;43152;50.968;18.214;2023-02-12T07:01:51;13.30;;;4.00;;
57307;SDS011;43152;50.968;18.214;2023-02-12T07:11:33;19.10;;;7.80;;
57307;SDS011;43152;50.968;18.214;2023-02-12T07:21:17;44.10;;;8.60;;
57307;SDS011;43152;50.968;18.214;2023-02-12T07:31:11;12.50;;;5.20;;
57307;SDS011;43152;50.968;18.214;2023-02-12T07:51:04;51.90;;;17.40;;
57307;SDS011;43152;50.968;18.214;2023-02-12T08:00:57;17.20;;;6.70;;
57307;SDS011;43152;50.968;18.214;2023-02-12T08:10:39;13.30;;;4.60;;
57307;SDS011;43152;50.968;18.214;2023-02-12T08:20:21;16.80;;;5.50;;
57307;SDS011;43152;50.968;18.214;2023-02-12T08:30:05;26.70;;;17.50;;
57307;SDS011;43152;50.968;18.214;2023-02-12T08:39:49;18.80;;;6.40;;
57307;SDS011;43152;50.968;18.214;2023-02-12T08:49:32;11.20;;;4.40;;
57307;SDS011;43152;50.968;18.214;2023-02-12T08:59:18;15.50;;;5.10;;
57307;SDS011;43152;50.968;18.214;2023-02-12T09:09:08;23.00;;;9.70;;
57307;SDS011;43152;50.968;18.214;2023-02-12T09:18:52;27.70;;;6.00;;
57307;SDS011;43152;50.968;18.214;2023-02-12T09:28:42;15.20;;;5.50;;
57307;SDS011;43152;50.968;18.214;2023-02-12T09:38:27;8.60;;;3.00;;
57307;SDS011;43152;50.968;18.214;2023-02-12T10:08:30;12.30;;;4.60;;
57307;SDS011;43152;50.968;18.214;2023-02-12T10:30:12;13.80;;;4.40;;
57307;SDS011;43152;50.968;18.214;2023-02-12T11:01:05;17.30;;;6.90;;
57307;SDS011;43152;50.968;18.214;2023-02-12T11:08:38;27.60;;;11.00;;
57307;SDS011;43152;50.968;18.214;2023-02-12T11:18:31;40.10;;;13.50;;
57307;SDS011;43152;50.968;18.214;2023-02-12T11:28:19;24.90;;;7.70;;
57307;SDS011;43152;50.968;18.214;2023-02-12T11:38:24;22.50;;;7.30;;
57307;SDS011;43152;50.968;18.214;2023-02-12T11:48:20;36.90;;;12.70;;
57307;SDS011;43152;50.968;18.214;2023-02-12T11:58:22;12.30;;;4.60;;
57307;SDS011;43152;50.968;18.214;2023-02-12T12:18:51;25.40;;;7.80;;
57307;SDS011;43152;50.968;18.214;2023-02-12T12:29:50;20.80;;;8.40;;
57307;SDS011;43152;50.968;18.214;2023-02-12T12:40:18;22.10;;;9.30;;
57307;SDS011;43152;50.968;18.214;2023-02-12T13:00:59;19.60;;;7.90;;
57307;SDS011;43152;50.968;18.214;2023-02-12T13:22:01;27.80;;;7.90;;
57307;SDS011;43152;50.968;18.214;2023-02-12T13:32:13;28.20;;;10.00;;
57307;SDS011;43152;50.968;18.214;2023-02-12T14:03:11;25.20;;;8.00;;
57307;SDS011;43152;50.968;18.214;2023-02-12T14:23:41;13.40;;;5.80;;
57307;SDS011;43152;50.968;18.214;2023-02-12T14:33:52;11.60;;;5.20;;
57307;SDS011;43152;50.968;18.214;2023-02-12T14:54:36;26.10;;;9.70;;
57307;SDS011;43152;50.968;18.214;2023-02-12T15:04:47;15.50;;;4.10;;
57307;SDS011;43152;50.968;18.214;2023-02-12T15:14:54;41.10;;;19.20;;
57307;SDS011;43152;50.968;18.214;2023-02-12T15:35:26;20.00;;;9.40;;
57307;SDS011;43152;50.968;18.214;2023-02-12T15:45:19;53.40;;;21.20;;
57307;SDS011;43152;50.968;18.214;2023-02-12T15:55:25;60.80;;;25.90;;
57307;SDS011;43152;50.968;18.214;2023-02-12T16:05:40;164.70;;;51.70;;
57307;SDS011;43152;50.968;18.214;2023-02-12T16:15:26;57.20;;;22.20;;
57307;SDS011;43152;50.968;18.214;2023-02-12T16:25:17;166.20;;;49.90;;
57307;SDS011;43152;50.968;18.214;2023-02-12T16:36:10;146.50;;;65.90;;
57307;SDS011;43152;50.968;18.214;2023-02-12T16:46:09;128.30;;;52.70;;
57307;SDS011;43152;50.968;18.214;2023-02-12T16:55:56;130.80;;;42.20;;
57307;SDS011;43152;50.968;18.214;2023-02-12T17:05:41;89.00;;;37.20;;
57307;SDS011;43152;50.968;18.214;2023-02-12T17:15:32;150.30;;;43.10;;
57307;SDS011;43152;50.968;18.214;2023-02-12T17:18:04;380.70;;;124.30;;
57307;SDS011;43152;50.968;18.214;2023-02-12T17:27:50;146.30;;;50.10;;
57307;SDS011;43152;50.968;18.214;2023-02-12T17:37:33;66.00;;;24.70;;
57307;SDS011;43152;50.968;18.214;2023-02-12T17:47:16;55.90;;;23.90;;
57307;SDS011;43152;50.968;18.214;2023-02-12T17:57:00;29.90;;;13.80;;
57307;SDS011;43152;50.968;18.214;2023-02-12T18:06:42;13.70;;;5.40;;
57307;SDS011;43152;50.968;18.214;2023-02-12T18:16:25;26.40;;;15.10;;
57307;SDS011;43152;50.968;18.214;2023-02-12T18:26:11;21.90;;;9.40;;
57307;SDS011;43152;50.968;18.214;2023-02-12T18:36:09;8.90;;;3.30;;
57307;SDS011;43152;50.968;18.214;2023-02-12T18:46:18;23.90;;;9.00;;
57307;SDS011;43152;50.968;18.214;2023-02-12T18:56:05;28.60;;;9.40;;
57307;SDS011;43152;50.968;18.214;2023-02-12T19:05:50;26.40;;;11.70;;
57307;SDS011;43152;50.968;18.214;2023-02-12T19:15:33;38.80;;;16.70;;
57307;SDS011;43152;50.968;18.214;2023-02-12T19:25:15;79.60;;;31.60;;
57307;SDS011;43152;50.968;18.214;2023-02-12T19:34:58;80.80;;;27.30;;
57307;SDS011;43152;50.968;18.214;2023-02-12T19:44:42;73.80;;;28.60;;
57307;SDS011;43152;50.968;18.214;2023-02-12T19:54:26;110.10;;;39.20;;
57307;SDS011;43152;50.968;18.214;2023-02-12T20:04:11;85.80;;;34.20;;
57307;SDS011;43152;50.968;18.214;2023-02-12T20:13:57;88.20;;;38.40;;
57307;SDS011;43152;50.968;18.214;2023-02-12T20:23:44;47.30;;;20.00;;
57307;SDS011;43152;50.968;18.214;2023-02-12T20:33:38;27.90;;;11.10;;
57307;SDS011;43152;50.968;18.214;2023-02-12T20:43:26;31.80;;;12.10;;
57307;SDS011;43152;50.968;18.214;2023-02-12T20:53:12;43.70;;;14.10;;
57307;SDS011;43152;50.968;18.214;2023-02-12T21:10:20;49.80;;;21.00;;
57307;SDS011;43152;50.968;18.214;2023-02-12T21:20:05;43.30;;;13.30;;
57307;SDS011;43152;50.968;18.214;2023-02-12T21:29:48;43.00;;;17.00;;
57307;SDS011;43152;50.968;18.214;2023-02-12T21:39:30;50.90;;;16.00;;
57307;SDS011;43152;50.968;18.214;2023-02-12T21:49:18;51.30;;;17.40;;
57307;SDS011;43152;50.968;18.214;2023-02-12T21:59:12;34.20;;;12.60;;
57307;SDS011;43152;50.968;18.214;2023-02-12T22:09:07;37.80;;;16.40;;
57307;SDS011;43152;50.968;18.214;2023-02-12T22:18:53;13.60;;;7.00;;
57307;SDS011;43152;50.968;18.214;2023-02-12T22:28:55;42.70;;;16.60;;
57307;SDS011;43152;50.968;18.214;2023-02-12T22:38:42;45.60;;;18.30;;
57307;SDS011;43152;50.968;18.214;2023-02-12T22:48:25;54.90;;;18.60;;
57307;SDS011;43152;50.968;18.214;2023-02-12T22:58:09;55.40;;;26.00;;
57307;SDS011;43152;50.968;18.214;2023-02-12T23:21:24;49.90;;;17.10;;
57307;SDS011;43152;50.968;18.214;2023-02-12T23:31:07;45.60;;;14.80;;
57307;SDS011;43152;50.968;18.214;2023-02-12T23:40:49;27.50;;;11.40;;
57307;SDS011;43152;50.968;18.214;2023-02-12T23:50:32;39.60;;;11.30;;
